D/T METAR WX W/DIR W/SPE G/SPE TEMP DEWP
22/01/20 06:50 EGVN 220650Z 27001KT 0300 FG VV/// 05/05 Q1037 NOSIG RMK RED RED FG W (270°) 1.2mph 5°C 5°C
22/01/20 06:20 EGVN 220620Z 24001KT 0400 FG OVC001 05/05 Q1037 NOSIG RMK RED RED FG WSW (240°) 1.2mph 5°C 5°C
22/01/20 05:50 EGVN 220550Z 27003KT 0300 FG OVC001 05/04 Q1037 NOSIG RMK RED RED FG W (270°) 3.5mph 5°C 4°C
22/01/20 05:20 EGVN 220520Z 27002KT 0300 FG VV/// 05/04 Q1037 NOSIG RMK RED RED FG W (270°) 2.3mph 5°C 4°C
22/01/20 04:50 EGVN 220450Z 23003KT 0300 FG OVC001 05/04 Q1037 NOSIG RMK RED RED FG SW (230°) 3.5mph 5°C 4°C
22/01/20 04:20 EGVN 220420Z 22002KT 0400 FG OVC001 04/04 Q1037 NOSIG RMK RED RED FG SW (220°) 2.3mph 4°C 4°C
22/01/20 03:50 EGVN 220350Z 29002KT 0800 FG OVC002 05/04 Q1038 TEMPO 0500 BKN001 RMK AMB TEMPO RED FG WNW (290°) 2.3mph 5°C 4°C
22/01/20 02:50 EGVN 220250Z 24003KT 1500 BR OVC002 05/04 Q1038 NOSIG RMK AMB AMB BR WSW (240°) 3.5mph 5°C 4°C
22/01/20 01:50 EGVN 220150Z 26003KT 1800 BR OVC003 04/04 Q1038 TEMPO 1200 OVC002 RMK YLO2 TEMPO AMB BR W (260°) 3.5mph 4°C 4°C
22/01/20 01:20 EGVN 220120Z 27003KT 1500 BR OVC003 04/04 Q1038 TEMPO OVC002 RMK AMB TEMPO AMB BR W (270°) 3.5mph 4°C 4°C
22/01/20 00:50 EGVN 220050Z 26003KT 1500 BR OVC003 04/04 Q1039 TEMPO OVC002 BR W (260°) 3.5mph 4°C 4°C
22/01/20 00:20 EGVN 220020Z 27003KT 2500 BR OVC004 05/04 Q1039 TEMPO 2000 BKN002 RMK YLO2 TEMPO AMB BR W (270°) 3.5mph 5°C 4°C
21/01/20 23:50 EGVN 212350Z 28003KT 3500 HZ OVC004 04/04 Q1039 TEMPO 2000 BR OVC002 RMK YLO2 TEMPO AMB HZ W (280°) 3.5mph 4°C 4°C
21/01/20 23:20 EGVN 212320Z 30003KT 4000 HZ OVC007 04/03 Q1039 BECMG 3000 BR BKN005 RMK GRN BECMG YLO1 HZ WNW (300°) 3.5mph 4°C 3°C
21/01/20 22:50 EGVN 212250Z 31005KT 5000 HZ FEW008 OVC012 04/03 Q1039 TEMPO 4000 RMK GRN TEMPO GRN HZ NW (310°) 5.8mph 4°C 3°C
21/01/20 22:20 EGVN 212220Z 26002KT 6000 -RA SCT010 BKN014 04/03 Q1039 TEMPO 4000 RMK GRN TEMPO GRN -RA W (260°) 2.3mph 4°C 3°C
21/01/20 21:50 EGVN 212150Z 27003KT 9999 -RA FEW010 BKN015 04/03 Q1039 BECMG BKN012 RMK WHT BECMG GRN -RA W (270°) 3.5mph 4°C 3°C
21/01/20 21:20 EGVN 212120Z 27003KT 9999 FEW010 OVC016 04/02 Q1039 BECMG BKN012 RMK WHT BECMG GRN W (270°) 3.5mph 4°C 2°C
21/01/20 20:50 EGVN 212050Z 27002KT 9999 OVC016 04/02 Q1039 BECMG OVC012 W (270°) 2.3mph 4°C 2°C
21/01/20 20:20 EGVN 212020Z 25003KT 9999 BKN019 04/02 Q1039 NOSIG RMK WHT WHT WSW (250°) 3.5mph 4°C 2°C
21/01/20 19:50 EGVN 211950Z 24001KT 9999 BKN021 03/02 Q1039 NOSIG RMK WHT WHT WSW (240°) 1.2mph 3°C 2°C
21/01/20 18:50 EGVN 211850Z 28003KT 9999 BKN022 03/01 Q1040 NOSIG RMK WHT WHT W (280°) 3.5mph 3°C 1°C
21/01/20 18:20 EGVN 211820Z 27003KT 9999 FEW022 03/01 Q1040 BECMG BKN018 RMK BLU BECMG WHT W (270°) 3.5mph 3°C 1°C
21/01/20 17:50 EGVN 211750Z 27003KT 9999 FEW020 03/01 Q1040 BECMG BKN018 RMK BLU BECMG WHT W (270°) 3.5mph 3°C 1°C
21/01/20 17:20 EGVN 211720Z 26003KT 9999 FEW020 04/02 Q1040 NOSIG RMK BLU BLU W (260°) 3.5mph 4°C 2°C
21/01/20 16:50 EGVN 211650Z 28003KT 9999 FEW020 05/02 Q1040 NOSIG RMK BLU BLU W (280°) 3.5mph 5°C 2°C
21/01/20 16:20 EGVN 211620Z 28003KT 9999 FEW023 06/02 Q1040 NOSIG RMK BLU BLU W (280°) 3.5mph 6°C 2°C
21/01/20 15:50 EGVN 211550Z 28003KT CAVOK 06/02 Q1040 NOSIG RMK BLU BLU W (280°) 3.5mph 6°C 2°C
21/01/20 15:20 EGVN 211520Z 31005KT 9999 FEW019 07/02 Q1040 NOSIG RMK BLU BLU NW (310°) 5.8mph 7°C 2°C
21/01/20 14:50 EGVN 211450Z 30004KT 9999 FEW019 08/02 Q1040 NOSIG RMK BLU BLU WNW (300°) 4.6mph 8°C 2°C
21/01/20 14:20 EGVN 211420Z 30003KT 9999 FEW019 07/02 Q1040 NOSIG RMK BLU BLU WNW (300°) 3.5mph 7°C 2°C
21/01/20 13:50 EGVN 211350Z 31006KT 9999 FEW019 07/02 Q1040 NOSIG RMK BLU BLU NW (310°) 6.9mph 7°C 2°C
21/01/20 13:20 EGVN 211320Z 25004KT 9999 FEW019 07/03 Q1041 NOSIG RMK BLU BLU WSW (250°) 4.6mph 7°C 3°C
21/01/20 12:50 EGVN 211250Z 21004KT 9999 FEW025 08/03 Q1041 NOSIG RMK BLU BLU SSW (210°) 4.6mph 8°C 3°C
21/01/20 12:20 EGVN 211220Z 31003KT 9999 FEW023 07/04 Q1041 NOSIG RMK BLU BLU NW (310°) 3.5mph 7°C 4°C
21/01/20 11:50 EGVN 211150Z 30004KT 9999 FEW023 06/03 Q1041 NOSIG RMK BLU BLU WNW (300°) 4.6mph 6°C 3°C
21/01/20 11:20 EGVN 211120Z 31003KT 9999 6000S HZ FEW023 04/03 Q1042 BECMG 9999 NSW RMK WHT BECMG BLU HZ NW (310°) 3.5mph 4°C 3°C
21/01/20 10:50 EGVN 211050Z 28003KT 9999 4000S BR FEW023 03/02 Q1042 BECMG 9999 NSW RMK GRN BECMG BLU BR W (280°) 3.5mph 3°C 2°C
21/01/20 10:20 EGVN 211020Z 27002KT 9999 3000S BR FEW023 01/00 Q1043 BECMG 9999 NSW RMK YLO1 BECMG BLU BR W (270°) 2.3mph 1°C 0°C
21/01/20 09:50 EGVN 210950Z 27003KT 8000 3000S BR BKN023 M00/M00 Q1043 BECMG 9999 NSW RMK YLO1 BECMG WHT BR W (270°) 3.5mph 0°C 0°C
21/01/20 09:20 EGVN 210920Z 20003KT 5000 3000S BR BKN023 M01/M01 Q1043 BECMG 9999 NSW BR SSW (200°) 3.5mph -1°C -1°C
21/01/20 08:50 EGVN 210850Z 21003KT 6000 2500S BR BKN022 M00/M01 Q1042 BECMG 9999 NSW RMK YLO1 BECMG WHT BR SSW (210°) 3.5mph 0°C -1°C
21/01/20 08:20 EGVN 210820Z 25002KT 4500 BR BKN020 M01/M01 Q1042 BECMG 5000 HZ RMK GRN BECMG WHT BR WSW (250°) 2.3mph -1°C -1°C
21/01/20 07:50 EGVN 210750Z 27002KT 4500 BR BKN020 M02/M02 Q1042 BECMG 5000 HZ BR W (270°) 2.3mph -2°C -2°C
21/01/20 06:50 EGVN 210650Z 21002KT 7000 3500S MIFG BR FEW002 SCT021 M03/M04 Q1042 BECG 0200 FZFG VV/// RMK YLO1 BECMG RED MIFG FZFG BR SSW (210°) 2.3mph -3°C -4°C
21/01/20 06:20 EGVN 210620Z 25001KT 5000 3500S MIFG BR FEW001 M03/M04 Q1042 BECMG 0200 FZFG VV/// RMK YLO1 BECMG RED MIFG BR WSW (250°) 1.2mph -3°C -4°C
21/01/20 05:50 EGVN 210550Z 24001KT 7000 3500NE BR FEW001 M03/M04 Q1042 BECMG 0200 FZFG VV/// RMK YLO1 BECMG RED BR WSW (240°) 1.2mph -3°C -4°C
21/01/20 05:22 EGVN 210522Z 21001KT 5000 3000NE BR FEW001 M03/M04 Q1042 BECMG 0200 FZFG VV/// RMK YLO1 BECMG RED BR SSW (210°) 1.2mph -3°C -4°C